Time;durP1;ratioP1;P1;durP2;ratioP2;P2;SDS_P1;SDS_P2;PMS_P1;PMS_P2;Temp;Humidity;BMP_temperature;BMP_pressure;BME280_temperature;BME280_humidity;BME280_pressure;Samples;Min_cycle;Max_cycle;Signal;HPM_P1;HPM_P2
2023/06/03 00:01:43;;;;;;;1.10;1.10;;;9.10;76.60;;;;;;5167169;28;20184;-46
2023/06/03 00:04:14;;;;;;;1.27;1.27;;;9.00;77.20;;;;;;5167676;28;20204;-44
2023/06/03 00:06:44;;;;;;;1.90;1.80;;;9.00;78.20;;;;;;5184702;28;20191;-44
2023/06/03 00:09:15;;;;;;;4.03;1.17;;;8.90;78.70;;;;;;5184588;28;20443;-43
2023/06/03 00:11:46;;;;;;;0.83;0.83;;;8.90;79.70;;;;;;5184693;28;20191;-43
2023/06/03 00:14:17;;;;;;;1.17;1.17;;;8.80;79.90;;;;;;5184451;28;20219;-44
2023/06/03 00:16:48;;;;;;;1.50;1.17;;;8.90;80.90;;;;;;5184145;28;20192;-45
2023/06/03 00:19:19;;;;;;;2.53;1.27;;;8.80;81.30;;;;;;5167771;28;20525;-44
2023/06/03 00:21:49;;;;;;;1.10;1.10;;;8.80;81.70;;;;;;5167592;28;20200;-45
2023/06/03 00:24:22;;;;;;;1.50;1.40;;;8.80;82.70;;;;;;5186559;28;20246;-44
2023/06/03 00:26:53;;;;;;;3.80;1.50;;;8.70;83.30;;;;;;5167373;28;20271;-44
2023/06/03 00:29:25;;;;;;;0.90;0.90;;;8.70;83.90;;;;;;5183688;28;20542;-44
2023/06/03 00:31:55;;;;;;;2.00;1.30;;;8.60;84.80;;;;;;5179592;28;20549;-45
2023/06/03 00:34:26;;;;;;;1.57;1.10;;;8.60;85.50;;;;;;5180552;28;20463;-44
2023/06/03 00:36:56;;;;;;;3.40;0.93;;;8.70;85.90;;;;;;5185607;28;20211;-44
2023/06/03 00:39:27;;;;;;;9.13;1.00;;;8.70;86.30;;;;;;5184048;28;20183;-44
2023/06/03 00:41:58;;;;;;;2.30;1.30;;;8.60;86.70;;;;;;5185080;28;20183;-44
2023/06/03 00:44:29;;;;;;;1.20;1.20;;;8.60;86.70;;;;;;5185214;28;20212;-44
2023/06/03 00:46:59;;;;;;;10.33;1.47;;;8.60;86.80;;;;;;5177553;28;20184;-44
2023/06/03 00:49:31;;;;;;;4.23;1.17;;;8.60;87.80;;;;;;5166717;28;20192;-44
2023/06/03 00:52:04;;;;;;;0.97;0.97;;;8.50;88.10;;;;;;5179636;28;20184;-43
2023/06/03 00:54:34;;;;;;;1.13;1.13;;;8.50;88.80;;;;;;5182491;28;20481;-45
2023/06/03 00:57:06;;;;;;;2.40;1.17;;;8.50;89.10;;;;;;5151578;28;21066;-44
2023/06/03 00:59:37;;;;;;;1.30;0.90;;;8.40;89.80;;;;;;5180785;28;20350;-44
2023/06/03 01:02:07;;;;;;;0.90;0.90;;;8.40;90.30;;;;;;5177901;28;20522;-44
2023/06/03 01:04:39;;;;;;;3.20;1.33;;;8.40;90.50;;;;;;5184958;28;20287;-44
2023/06/03 01:07:10;;;;;;;1.23;1.13;;;8.30;90.80;;;;;;5166738;28;20188;-44
2023/06/03 01:09:46;;;;;;;1.43;1.10;;;8.30;90.80;;;;;;5179772;28;20435;-44
2023/06/03 01:12:46;;;;;;;1.33;1.07;;;8.30;91.10;;;;;;5183354;28;20438;-44
2023/06/03 01:15:23;;;;;;;1.50;1.40;;;8.20;91.40;;;;;;5180283;28;21046;-44
2023/06/03 01:17:57;;;;;;;1.10;1.10;;;8.30;91.90;;;;;;5182207;28;21014;-44
2023/06/03 01:20:28;;;;;;;1.03;0.90;;;8.20;91.90;;;;;;5183926;28;20446;-45
2023/06/03 01:23:23;;;;;;;5.33;0.87;;;8.10;92.30;;;;;;5177740;28;20516;-44
2023/06/03 01:25:58;;;;;;;1.53;1.07;;;8.10;92.40;;;;;;5189604;28;20923;-43
2023/06/03 01:28:29;;;;;;;1.67;1.30;;;8.10;92.50;;;;;;5186195;28;20806;-44
2023/06/03 01:31:01;;;;;;;0.90;0.90;;;8.10;92.50;;;;;;5188251;28;20493;-44
2023/06/03 01:33:34;;;;;;;2.20;1.20;;;8.00;92.80;;;;;;5186011;28;20592;-44
2023/06/03 01:36:05;;;;;;;2.10;1.43;;;8.00;92.90;;;;;;5187078;28;20458;-44
2023/06/03 01:38:36;;;;;;;0.87;0.87;;;8.00;93.00;;;;;;5188411;28;20462;-44
2023/06/03 01:41:07;;;;;;;1.27;1.17;;;8.00;93.30;;;;;;5173017;28;20443;-44
2023/06/03 01:43:37;;;;;;;3.90;0.87;;;7.90;93.30;;;;;;5187016;28;20231;-43
2023/06/03 01:46:08;;;;;;;0.80;0.80;;;7.90;93.80;;;;;;5186626;28;20177;-44
2023/06/03 01:48:39;;;;;;;1.07;1.07;;;7.80;93.80;;;;;;5185323;28;20180;-44
2023/06/03 01:51:10;;;;;;;7.80;1.10;;;7.80;93.90;;;;;;5184454;28;20263;-44
2023/06/03 01:53:40;;;;;;;2.13;0.80;;;7.80;94.10;;;;;;5187542;28;20534;-44
2023/06/03 01:56:11;;;;;;;0.77;0.77;;;7.80;94.20;;;;;;5187549;28;20189;-53
2023/06/03 01:58:42;;;;;;;2.23;1.10;;;7.70;94.30;;;;;;5186992;28;20645;-45
2023/06/03 02:01:13;;;;;;;0.83;0.83;;;7.70;94.50;;;;;;5186173;28;20181;-45
2023/06/03 02:03:44;;;;;;;1.63;0.80;;;7.70;94.60;;;;;;5188687;28;20474;-44
2023/06/03 02:06:15;;;;;;;5.17;1.10;;;7.70;94.80;;;;;;5185571;28;20435;-44
2023/06/03 02:08:45;;;;;;;2.20;0.93;;;7.70;95.10;;;;;;5184858;28;20207;-44
2023/06/03 02:11:16;;;;;;;4.13;1.20;;;7.60;94.80;;;;;;5190354;28;20234;-43
2023/06/03 02:13:47;;;;;;;1.10;1.10;;;7.60;95.20;;;;;;5191389;28;20211;-44
2023/06/03 02:16:17;;;;;;;4.43;0.97;;;7.60;95.10;;;;;;5187278;28;20236;-44
2023/06/03 02:18:48;;;;;;;2.77;0.80;;;7.60;95.20;;;;;;5189744;28;20198;-44
2023/06/03 02:21:18;;;;;;;1.30;1.00;;;7.50;95.30;;;;;;5189186;28;20530;-44
2023/06/03 02:23:49;;;;;;;1.03;1.03;;;7.50;95.50;;;;;;5191813;28;20204;-43
2023/06/03 02:26:20;;;;;;;1.67;0.97;;;7.50;95.20;;;;;;5192097;28;20184;-43
2023/06/03 02:28:51;;;;;;;4.93;0.90;;;7.50;95.50;;;;;;5175856;28;20188;-44
2023/06/03 02:31:21;;;;;;;1.23;0.90;;;7.50;95.20;;;;;;5186295;28;20441;-43
2023/06/03 02:33:52;;;;;;;0.97;0.90;;;7.50;95.40;;;;;;5189821;28;20759;-44
2023/06/03 02:36:22;;;;;;;8.10;0.80;;;7.40;95.30;;;;;;5189586;28;20183;-44
2023/06/03 02:38:53;;;;;;;1.67;1.00;;;7.40;95.10;;;;;;5189492;28;20184;-44
2023/06/03 02:41:24;;;;;;;2.00;1.00;;;7.50;95.50;;;;;;5189028;28;20212;-44
2023/06/03 02:43:54;;;;;;;2.20;0.90;;;7.40;95.40;;;;;;5188848;28;20216;-45
2023/06/03 02:46:25;;;;;;;3.53;0.97;;;7.40;95.40;;;;;;5171972;28;20180;-44
2023/06/03 02:48:55;;;;;;;1.10;1.00;;;7.40;95.60;;;;;;5188003;28;20177;-44
2023/06/03 02:51:26;;;;;;;0.77;0.73;;;7.40;95.80;;;;;;5187461;28;20237;-44
2023/06/03 02:53:57;;;;;;;2.00;0.90;;;7.40;95.40;;;;;;5168517;28;20516;-44
2023/06/03 02:56:27;;;;;;;0.73;0.73;;;7.40;95.50;;;;;;5186837;28;20195;-45
2023/06/03 02:58:58;;;;;;;1.60;1.30;;;7.40;95.30;;;;;;5187104;28;20292;-44
2023/06/03 03:01:29;;;;;;;3.17;1.00;;;7.40;95.30;;;;;;5151753;28;20191;-44
2023/06/03 03:04:01;;;;;;;1.40;1.00;;;7.40;95.20;;;;;;5185318;28;20660;-45
2023/06/03 03:06:31;;;;;;;1.07;0.60;;;7.40;95.40;;;;;;5185767;28;20442;-44
2023/06/03 03:09:02;;;;;;;0.97;0.90;;;7.40;95.20;;;;;;5191832;28;20447;-44
2023/06/03 03:11:33;;;;;;;2.30;1.00;;;7.50;94.80;;;;;;5188523;28;20203;-45
2023/06/03 03:14:06;;;;;;;1.63;0.97;;;7.50;94.90;;;;;;5189237;28;20466;-44
2023/06/03 03:16:37;;;;;;;1.70;0.70;;;7.50;94.70;;;;;;5185134;28;20183;-44
2023/06/03 03:19:09;;;;;;;0.87;0.87;;;7.60;94.40;;;;;;5190096;28;20835;-44
2023/06/03 03:21:40;;;;;;;0.83;0.83;;;7.60;93.90;;;;;;5190390;28;20184;-44
2023/06/03 03:24:11;;;;;;;0.57;0.57;;;7.60;94.00;;;;;;5192335;28;20455;-44
2023/06/03 03:26:42;;;;;;;0.97;0.87;;;7.60;93.40;;;;;;5188482;28;20190;-44
2023/06/03 03:29:13;;;;;;;0.73;0.60;;;7.60;93.40;;;;;;5171139;28;20470;-44
2023/06/03 03:31:43;;;;;;;1.13;0.87;;;7.60;93.30;;;;;;5169545;28;20427;-43
2023/06/03 03:34:14;;;;;;;1.30;0.80;;;7.60;93.20;;;;;;5190830;28;20278;-44
2023/06/03 03:36:45;;;;;;;1.03;1.03;;;7.60;93.00;;;;;;5191240;28;20222;-45
2023/06/03 03:39:16;;;;;;;2.13;1.00;;;7.70;92.80;;;;;;5169014;28;20261;-45
2023/06/03 03:41:47;;;;;;;1.73;0.90;;;7.70;92.80;;;;;;5174150;28;20502;-44
2023/06/03 03:44:17;;;;;;;1.17;0.50;;;7.70;92.50;;;;;;5187019;28;20683;-44
2023/06/03 03:46:58;;;;;;;0.63;0.63;;;7.80;92.80;;;;;;5171138;28;20898;-44
2023/06/03 03:49:33;;;;;;;1.77;0.80;;;7.70;92.30;;;;;;5189993;28;20698;-45
2023/06/03 03:52:05;;;;;;;0.50;0.50;;;7.70;92.50;;;;;;5188179;28;20493;-44
2023/06/03 03:54:35;;;;;;;1.57;0.80;;;7.70;92.50;;;;;;5189063;28;20495;-44
2023/06/03 03:57:10;;;;;;;4.10;1.20;;;7.80;92.40;;;;;;5189947;28;20454;-44
2023/06/03 03:59:42;;;;;;;4.13;0.93;;;7.80;92.30;;;;;;5182554;28;20215;-44
2023/06/03 04:02:12;;;;;;;0.60;0.60;;;7.80;92.30;;;;;;5188465;28;20435;-45
2023/06/03 04:04:44;;;;;;;1.20;0.83;;;7.80;92.20;;;;;;5187058;28;20466;-44
2023/06/03 04:07:20;;;;;;;3.30;1.00;;;7.90;92.40;;;;;;5190507;28;20202;-44
2023/06/03 04:09:50;;;;;;;2.53;1.30;;;7.90;92.20;;;;;;5190248;28;20484;-45
2023/06/03 04:12:29;;;;;;;1.13;1.10;;;8.00;92.30;;;;;;5188504;28;20522;-44
2023/06/03 04:15:00;;;;;;;2.67;0.60;;;8.10;92.10;;;;;;5188993;28;20231;-44
2023/06/03 04:17:37;;;;;;;1.00;1.00;;;8.20;91.90;;;;;;5191745;28;20797;-44
2023/06/03 04:20:38;;;;;;;3.00;1.73;;;8.30;91.50;;;;;;5188149;28;20585;-44
2023/06/03 04:23:20;;;;;;;1.23;1.13;;;8.50;91.20;;;;;;5186611;28;20431;-44
2023/06/03 04:25:53;;;;;;;0.80;0.80;;;8.50;91.10;;;;;;5191647;28;20470;-44
2023/06/03 04:28:24;;;;;;;2.50;0.87;;;8.70;90.30;;;;;;5190120;28;20471;-45
2023/06/03 04:30:54;;;;;;;1.67;0.80;;;8.90;90.20;;;;;;5173617;28;20457;-44
2023/06/03 04:33:28;;;;;;;6.63;1.17;;;9.10;89.30;;;;;;5231312;23;20304;-44
2023/06/03 04:36:02;;;;;;;3.40;1.00;;;9.20;87.80;;;;;;5207284;28;20198;-45
2023/06/03 04:38:33;;;;;;;1.00;0.60;;;9.20;87.50;;;;;;5226100;28;20444;-44
2023/06/03 04:41:04;;;;;;;1.53;0.90;;;9.30;87.10;;;;;;5227171;28;20437;-44
2023/06/03 04:43:38;;;;;;;6.03;1.47;;;9.50;85.80;;;;;;5229453;28;20198;-44
2023/06/03 04:46:10;;;;;;;1.00;1.00;;;9.70;84.20;;;;;;5212639;28;20448;-45
2023/06/03 04:48:45;;;;;;;9.53;1.67;;;10.00;80.30;;;;;;5216950;28;20418;-46
2023/06/03 04:51:16;;;;;;;2.93;1.50;;;10.30;78.80;;;;;;5210500;28;20433;-44
2023/06/03 04:53:47;;;;;;;1.80;1.00;;;10.50;76.50;;;;;;5214729;28;20865;-44
2023/06/03 04:56:18;;;;;;;4.13;1.27;;;10.50;75.00;;;;;;5215158;28;20449;-44
2023/06/03 04:58:55;;;;;;;3.50;1.03;;;10.70;75.00;;;;;;5213516;28;20209;-45
2023/06/03 05:01:36;;;;;;;1.13;1.13;;;11.10;73.00;;;;;;5214530;28;20448;-45
2023/06/03 05:04:11;;;;;;;1.10;0.90;;;11.90;70.00;;;;;;5215634;28;20461;-44
2023/06/03 05:06:45;;;;;;;2.57;0.90;;;12.80;65.60;;;;;;5215428;28;20437;-45
2023/06/03 05:09:19;;;;;;;1.40;1.33;;;13.60;59.70;;;;;;5215234;28;20434;-45
2023/06/03 05:11:51;;;;;;;0.93;0.93;;;13.80;56.90;;;;;;5236553;28;20441;-44
2023/06/03 05:14:22;;;;;;;6.40;1.23;;;13.50;57.90;;;;;;5216567;28;20453;-45
2023/06/03 05:16:53;;;;;;;1.00;1.00;;;13.60;56.70;;;;;;5198732;28;20536;-45
2023/06/03 05:19:24;;;;;;;1.20;0.70;;;14.30;55.00;;;;;;5230797;28;20437;-46
2023/06/03 05:21:57;;;;;;;1.20;1.10;;;15.30;52.00;;;;;;5235797;28;20441;-44
2023/06/03 05:24:28;;;;;;;5.90;1.40;;;16.70;49.00;;;;;;5230643;28;20175;-45
2023/06/03 05:27:01;;;;;;;1.17;1.07;;;17.20;45.80;;;;;;5231450;28;20983;-43
2023/06/03 05:29:32;;;;;;;1.50;1.00;;;17.50;44.60;;;;;;5209004;28;20198;-45
2023/06/03 05:32:03;;;;;;;1.37;0.80;;;17.80;43.90;;;;;;5207277;28;20438;-46
2023/06/03 05:34:34;;;;;;;0.80;0.80;;;18.20;42.20;;;;;;5226761;28;20465;-45
2023/06/03 05:37:07;;;;;;;1.57;1.30;;;17.80;42.20;;;;;;5235098;28;20986;-46
2023/06/03 05:39:39;;;;;;;9.53;1.63;;;18.10;41.90;;;;;;5213033;28;20190;-46
2023/06/03 05:42:15;;;;;;;3.00;1.40;;;17.90;42.10;;;;;;5231753;28;20823;-45
2023/06/03 05:44:46;;;;;;;1.63;1.20;;;17.70;41.60;;;;;;5215472;28;20445;-45
2023/06/03 05:47:17;;;;;;;1.50;1.40;;;17.80;42.20;;;;;;5213366;28;20972;-45
2023/06/03 05:49:51;;;;;;;6.03;1.40;;;18.80;41.10;;;;;;5213750;28;20196;-45
2023/06/03 05:52:22;;;;;;;4.30;1.13;;;20.10;40.00;;;;;;5227095;28;20202;-46
2023/06/03 05:54:56;;;;;;;2.63;1.13;;;21.70;36.40;;;;;;5212919;28;20445;-46
2023/06/03 05:57:27;;;;;;;4.57;1.50;;;22.00;34.60;;;;;;5212668;28;20429;-45
2023/06/03 06:00:00;;;;;;;3.17;2.37;;;22.40;33.60;;;;;;5213689;28;20443;-45
2023/06/03 06:02:33;;;;;;;2.10;1.43;;;22.20;33.90;;;;;;5218317;28;20540;-45
2023/06/03 06:05:06;;;;;;;1.23;1.00;;;22.40;33.20;;;;;;5228044;28;20505;-46
2023/06/03 06:07:37;;;;;;;2.00;1.60;;;22.60;32.60;;;;;;5233140;28;20445;-45
2023/06/03 06:10:10;;;;;;;1.63;1.03;;;23.00;32.80;;;;;;5216772;28;20952;-45
2023/06/03 06:12:41;;;;;;;2.33;1.50;;;23.40;31.00;;;;;;5233569;28;20719;-46
2023/06/03 06:15:14;;;;;;;3.80;1.10;;;23.60;31.10;;;;;;5215732;28;20508;-47
2023/06/03 06:17:50;;;;;;;2.20;1.37;;;23.50;30.10;;;;;;5230608;28;20520;-44
2023/06/03 06:20:21;;;;;;;4.00;1.30;;;23.40;30.40;;;;;;5214309;28;20441;-46
2023/06/03 06:22:53;;;;;;;1.90;1.20;;;23.20;30.70;;;;;;5217203;28;20449;-44
2023/06/03 06:25:24;;;;;;;1.13;1.07;;;23.80;30.70;;;;;;5234393;28;21173;-46
2023/06/03 06:28:00;;;;;;;1.37;1.27;;;23.60;29.70;;;;;;5207202;28;20437;-44
2023/06/03 06:30:32;;;;;;;2.70;1.30;;;24.00;30.00;;;;;;5210403;28;20437;-45
2023/06/03 06:33:06;;;;;;;3.13;1.10;;;24.60;29.20;;;;;;5206458;28;21078;-45
2023/06/03 06:35:37;;;;;;;1.33;1.33;;;24.70;29.20;;;;;;5208518;28;20467;-45
2023/06/03 06:38:11;;;;;;;2.10;1.70;;;24.80;28.90;;;;;;5219771;28;20433;-45
2023/06/03 06:40:45;;;;;;;1.17;1.07;;;24.30;28.80;;;;;;5210043;28;20446;-46
2023/06/03 06:43:18;;;;;;;2.43;1.50;;;23.90;29.80;;;;;;5211210;28;20481;-45
2023/06/03 06:45:53;;;;;;;2.93;1.60;;;24.00;29.60;;;;;;5201297;28;20448;-46
2023/06/03 06:48:24;;;;;;;2.93;1.33;;;24.30;29.30;;;;;;5230589;28;20429;-47
2023/06/03 06:50:58;;;;;;;1.27;1.20;;;25.00;28.90;;;;;;5208879;28;20434;-45
2023/06/03 06:53:29;;;;;;;1.50;1.30;;;25.70;27.90;;;;;;5204095;28;20604;-45
2023/06/03 06:56:06;;;;;;;3.27;2.00;;;26.70;27.30;;;;;;5227348;28;20466;-46
2023/06/03 06:58:40;;;;;;;3.80;1.60;;;28.40;26.30;;;;;;5204041;28;20570;-46
2023/06/03 07:01:11;;;;;;;1.27;1.17;;;28.90;24.80;;;;;;5222526;28;20513;-45
2023/06/03 07:03:44;;;;;;;6.63;1.27;;;28.50;24.60;;;;;;5228658;28;20532;-46
2023/06/03 07:06:15;;;;;;;4.70;1.50;;;28.30;25.00;;;;;;5204771;28;20460;-46
2023/06/03 07:08:48;;;;;;;1.33;1.30;;;28.40;25.00;;;;;;5221286;28;20434;-46
2023/06/03 07:11:22;;;;;;;1.23;1.00;;;28.20;24.60;;;;;;5204419;28;20191;-46
2023/06/03 07:13:53;;;;;;;4.10;1.23;;;27.70;25.40;;;;;;5228075;28;21127;-45
2023/06/03 07:16:24;;;;;;;1.67;1.57;;;27.60;25.50;;;;;;5224721;28;20441;-46
2023/06/03 07:19:03;;;;;;;0.90;0.90;;;27.20;25.70;;;;;;5226162;28;20451;-45
2023/06/03 07:21:34;;;;;;;1.17;1.17;;;28.20;25.70;;;;;;5205027;28;20437;-46
2023/06/03 07:24:07;;;;;;;1.60;1.30;;;29.00;24.20;;;;;;5227046;28;20480;-45
2023/06/03 07:26:39;;;;;;;1.30;1.20;;;28.40;24.70;;;;;;5207790;28;20722;-44
2023/06/03 07:29:13;;;;;;;1.60;1.20;;;27.40;24.90;;;;;;5218801;28;20482;-47
2023/06/03 07:31:46;;;;;;;4.83;1.20;;;26.90;25.70;;;;;;5223301;28;20516;-45
2023/06/03 07:34:24;;;;;;;4.90;1.30;;;26.70;25.60;;;;;;5218029;28;20473;-46
2023/06/03 07:37:02;;;;;;;2.40;1.70;;;26.60;25.90;;;;;;5212504;28;20465;-46
2023/06/03 07:39:33;;;;;;;8.63;1.67;;;26.40;26.30;;;;;;5221672;28;20856;-46
2023/06/03 07:42:11;;;;;;;1.63;1.47;;;27.50;25.70;;;;;;5205935;28;20437;-46
2023/06/03 07:44:48;;;;;;;1.97;1.50;;;27.50;25.10;;;;;;5214500;28;20421;-46
2023/06/03 07:47:20;;;;;;;1.43;1.33;;;28.00;24.90;;;;;;5226379;28;20433;-46
2023/06/03 07:49:52;;;;;;;1.13;1.03;;;28.10;24.60;;;;;;5213272;28;20613;-46
2023/06/03 07:52:23;;;;;;;1.73;1.63;;;27.70;24.90;;;;;;5229878;28;20486;-46
2023/06/03 07:54:54;;;;;;;4.17;1.23;;;27.40;24.90;;;;;;5231001;28;20496;-46
2023/06/03 07:57:25;;;;;;;1.23;1.00;;;27.00;24.50;;;;;;5212503;28;20437;-46
2023/06/03 07:59:56;;;;;;;1.97;1.30;;;26.60;24.90;;;;;;5214113;28;20272;-46
2023/06/03 08:02:27;;;;;;;3.30;1.13;;;26.10;25.40;;;;;;5210338;28;20194;-46
2023/06/03 08:05:02;;;;;;;1.70;1.60;;;26.90;25.60;;;;;;5208318;28;20354;-46
2023/06/03 08:07:40;;;;;;;14.03;1.60;;;27.50;25.00;;;;;;5232339;28;20183;-46
2023/06/03 08:10:22;;;;;;;2.37;1.37;;;27.70;24.40;;;;;;5234322;28;20533;-46
2023/06/03 08:12:57;;;;;;;3.80;1.60;;;27.10;24.80;;;;;;5207324;28;20457;-46
2023/06/03 08:15:32;;;;;;;1.90;1.20;;;26.80;24.70;;;;;;5224097;28;20483;-46
2023/06/03 08:18:12;;;;;;;1.17;1.03;;;27.80;25.00;;;;;;5223247;28;20773;-45
2023/06/03 08:20:50;;;;;;;2.13;1.23;;;29.10;23.30;;;;;;5208142;28;20429;-47
2023/06/03 08:23:20;;;;;;;1.43;1.33;;;29.50;22.80;;;;;;5213640;28;20449;-48
2023/06/03 08:25:51;;;;;;;2.53;0.80;;;29.70;22.80;;;;;;5228001;28;20421;-47
2023/06/03 08:28:24;;;;;;;6.93;1.53;;;29.00;22.70;;;;;;5211704;28;20187;-47
2023/06/03 08:30:59;;;;;;;1.20;1.10;;;28.80;23.40;;;;;;5226442;28;20178;-49
2023/06/03 08:33:29;;;;;;;2.00;1.00;;;29.50;23.10;;;;;;5224698;28;21033;-46
2023/06/03 08:36:01;;;;;;;2.70;1.30;;;29.80;22.30;;;;;;5214402;28;20465;-46
2023/06/03 08:38:35;;;;;;;2.40;1.80;;;29.60;22.40;;;;;;5207586;28;20278;-46
2023/06/03 08:41:07;;;;;;;1.83;1.43;;;28.80;22.50;;;;;;5208351;28;20440;-45
2023/06/03 08:43:48;;;;;;;1.03;1.03;;;26.70;24.00;;;;;;5228361;28;20457;-46
2023/06/03 08:46:30;;;;;;;1.07;0.90;;;26.10;25.30;;;;;;5228014;28;21148;-46
2023/06/03 08:49:07;;;;;;;2.40;1.10;;;26.30;24.40;;;;;;5228220;28;20459;-47
2023/06/03 08:51:43;;;;;;;2.30;1.20;;;24.70;25.90;;;;;;5194381;28;20477;-47
2023/06/03 08:54:18;;;;;;;6.53;1.30;;;22.40;27.50;;;;;;5209178;28;20470;-46
2023/06/03 08:56:56;;;;;;;1.20;1.10;;;20.70;29.50;;;;;;5215400;28;20510;-46
2023/06/03 08:59:29;;;;;;;5.27;1.40;;;19.80;30.70;;;;;;5220780;28;20512;-45
2023/06/03 09:02:05;;;;;;;2.10;1.00;;;19.40;31.80;;;;;;5205813;28;20437;-45
2023/06/03 09:04:40;;;;;;;1.63;1.20;;;19.40;32.20;;;;;;5205504;28;20809;-46
2023/06/03 09:07:11;;;;;;;1.83;1.23;;;19.40;32.20;;;;;;5206535;28;20426;-46
2023/06/03 09:09:50;;;;;;;1.63;1.20;;;19.20;32.20;;;;;;5200207;28;20444;-46
2023/06/03 09:12:22;;;;;;;1.57;1.03;;;19.30;32.50;;;;;;5215444;28;20524;-46
2023/06/03 09:14:55;;;;;;;4.77;1.20;;;19.20;31.80;;;;;;5192343;28;20453;-45
2023/06/03 09:17:27;;;;;;;4.10;1.73;;;19.00;31.80;;;;;;5201405;28;20436;-45
2023/06/03 09:20:02;;;;;;;6.93;1.00;;;19.00;32.40;;;;;;5218878;28;20494;-45
2023/06/03 09:22:36;;;;;;;1.27;1.00;;;18.80;32.30;;;;;;5213013;28;20518;-46
2023/06/03 09:25:08;;;;;;;1.50;1.10;;;18.60;33.00;;;;;;5204417;28;20434;-46
2023/06/03 09:27:40;;;;;;;10.70;1.10;;;18.70;32.90;;;;;;5227441;28;20441;-45
2023/06/03 09:30:11;;;;;;;1.10;1.00;;;18.80;32.40;;;;;;5216410;28;20437;-47
2023/06/03 09:32:42;;;;;;;1.60;1.50;;;18.80;31.80;;;;;;5206896;28;20477;-45
2023/06/03 09:35:13;;;;;;;1.50;1.03;;;18.70;32.70;;;;;;5218864;28;20470;-46
2023/06/03 09:37:59;;;;;;;2.30;1.13;;;18.40;32.30;;;;;;5215530;28;20868;-45
2023/06/03 09:40:31;;;;;;;3.40;1.27;;;18.10;32.50;;;;;;5217891;28;20175;-47
2023/06/03 09:43:14;;;;;;;4.00;1.07;;;18.00;33.20;;;;;;5220028;28;20465;-46
2023/06/03 09:45:47;;;;;;;3.13;1.50;;;18.10;32.60;;;;;;5220003;28;20456;-47
2023/06/03 09:48:26;;;;;;;1.53;1.00;;;18.30;32.20;;;;;;5226639;28;20837;-46
2023/06/03 09:50:57;;;;;;;1.60;0.97;;;18.40;32.90;;;;;;5209520;28;20428;-45
2023/06/03 09:53:29;;;;;;;2.50;0.80;;;18.40;31.70;;;;;;5227821;28;20553;-46
2023/06/03 09:56:21;;;;;;;4.33;1.33;;;18.40;32.20;;;;;;5215728;28;20223;-47
2023/06/03 09:59:12;;;;;;;6.97;1.37;;;18.20;32.20;;;;;;5208829;28;20670;-45
2023/06/03 10:01:47;;;;;;;0.90;0.90;;;18.50;32.70;;;;;;5200377;28;20434;-46
2023/06/03 10:04:23;;;;;;;3.17;1.33;;;18.50;32.40;;;;;;5225919;28;20728;-47
2023/06/03 10:07:11;;;;;;;1.60;1.20;;;18.40;31.80;;;;;;5193528;28;20532;-45
2023/06/03 10:09:46;;;;;;;1.37;1.07;;;18.10;32.20;;;;;;5224178;28;20460;-46
2023/06/03 10:12:31;;;;;;;4.23;1.00;;;17.80;32.20;;;;;;5223954;28;20456;-46
2023/06/03 10:15:08;;;;;;;0.97;0.97;;;17.90;33.90;;;;;;5212175;28;20471;-45
2023/06/03 10:17:46;;;;;;;1.50;0.83;;;18.10;32.30;;;;;;5220056;28;20449;-46
2023/06/03 10:20:35;;;;;;;1.70;0.83;;;18.10;32.40;;;;;;5224724;28;20437;-46
2023/06/03 10:23:08;;;;;;;1.80;1.03;;;18.30;32.50;;;;;;5228079;28;20482;-48
2023/06/03 10:25:52;;;;;;;1.40;1.00;;;18.30;31.30;;;;;;5235844;28;20428;-45
2023/06/03 10:28:25;;;;;;;1.53;1.13;;;18.30;30.90;;;;;;5209599;28;21075;-46
2023/06/03 10:30:57;;;;;;;2.73;0.90;;;18.30;31.10;;;;;;5228254;28;20430;-47
2023/06/03 10:33:29;;;;;;;1.73;1.20;;;18.30;31.40;;;;;;5215032;22;20997;-46
2023/06/03 10:36:02;;;;;;;2.73;1.17;;;18.20;31.70;;;;;;5201847;28;20453;-45
2023/06/03 10:38:33;;;;;;;5.03;1.20;;;18.30;32.10;;;;;;5207670;28;22837;-45
2023/06/03 10:41:04;;;;;;;7.40;1.27;;;18.40;32.30;;;;;;5207154;28;20513;-46
2023/06/03 10:43:37;;;;;;;1.63;1.03;;;18.60;31.90;;;;;;5207900;28;20208;-46
2023/06/03 10:46:09;;;;;;;2.37;0.70;;;18.40;32.30;;;;;;5190190;28;20962;-46
2023/06/03 10:48:44;;;;;;;2.47;1.03;;;18.30;32.10;;;;;;5183395;28;20441;-45
2023/06/03 10:51:42;;;;;;;1.47;0.87;;;18.10;32.10;;;;;;5192574;28;20455;-46
2023/06/03 10:54:32;;;;;;;1.40;0.93;;;18.10;32.60;;;;;;5200955;28;20462;-46
2023/06/03 10:57:10;;;;;;;1.23;0.97;;;18.20;32.40;;;;;;5186317;28;20521;-46
2023/06/03 10:59:44;;;;;;;0.80;0.80;;;18.20;32.30;;;;;;5204123;28;20470;-46
2023/06/03 11:02:16;;;;;;;5.90;1.20;;;18.30;32.20;;;;;;5205786;28;20840;-43
2023/06/03 11:04:46;;;;;;;3.07;1.23;;;18.50;32.20;;;;;;5207067;28;20786;-46
2023/06/03 11:07:35;;;;;;;2.40;1.40;;;18.70;32.00;;;;;;5187664;28;20446;-43
2023/06/03 11:10:34;;;;;;;1.00;0.90;;;18.80;31.70;;;;;;5201336;28;20623;-45
2023/06/03 11:13:05;;;;;;;1.90;1.80;;;19.00;31.70;;;;;;5207641;28;20485;-44
2023/06/03 11:16:01;;;;;;;2.03;1.03;;;19.40;31.90;;;;;;5202153;28;20488;-45
2023/06/03 11:18:32;;;;;;;1.43;1.33;;;19.70;30.80;;;;;;5207915;28;20446;-45
2023/06/03 11:21:03;;;;;;;3.03;0.80;;;19.90;30.80;;;;;;5186787;28;20434;-44
2023/06/03 11:23:45;;;;;;;1.40;1.30;;;19.90;30.20;;;;;;5206272;28;20680;-47
2023/06/03 11:26:38;;;;;;;3.90;0.93;;;19.70;30.70;;;;;;5203397;28;20274;-45
2023/06/03 11:29:44;;;;;;;0.90;0.90;;;19.30;31.00;;;;;;5188431;28;20493;-47
2023/06/03 11:32:25;;;;;;;3.33;0.73;;;19.00;31.80;;;;;;5190933;28;20457;-45
2023/06/03 11:34:58;;;;;;;9.90;5.80;;;19.00;31.70;;;;;;5183434;28;20466;-44
2023/06/03 11:37:42;;;;;;;1.83;1.37;;;19.20;32.30;;;;;;5203726;28;20826;-45
2023/06/03 11:40:20;;;;;;;5.10;1.37;;;19.40;31.10;;;;;;5170465;28;20955;-45
2023/06/03 11:42:50;;;;;;;1.73;1.63;;;19.30;30.80;;;;;;5189344;28;20528;-46
2023/06/03 11:45:21;;;;;;;1.03;1.00;;;19.00;30.90;;;;;;5195450;28;20442;-44
2023/06/03 11:48:18;;;;;;;1.17;0.83;;;18.90;31.40;;;;;;5201384;28;20659;-44
2023/06/03 11:50:54;;;;;;;4.83;0.93;;;18.70;30.60;;;;;;5193244;28;20949;-44
2023/06/03 11:53:28;;;;;;;1.07;0.77;;;18.80;31.10;;;;;;5204759;28;20444;-47
2023/06/03 11:56:08;;;;;;;0.60;0.60;;;18.90;31.50;;;;;;5183923;28;20483;-45
2023/06/03 11:58:42;;;;;;;2.90;0.80;;;19.10;31.10;;;;;;5187404;28;20442;-44
2023/06/03 12:01:17;;;;;;;3.93;1.10;;;19.10;31.20;;;;;;5198118;28;20426;-45
2023/06/03 12:04:01;;;;;;;2.20;1.20;;;19.00;31.40;;;;;;5198114;28;20547;-45
2023/06/03 12:06:34;;;;;;;0.83;0.80;;;19.10;31.50;;;;;;5179854;28;20477;-43
2023/06/03 12:09:04;;;;;;;1.03;0.93;;;19.00;31.20;;;;;;5184156;28;20485;-43
2023/06/03 12:11:40;;;;;;;4.53;1.10;;;19.20;31.80;;;;;;5198737;28;20899;-46
2023/06/03 12:14:21;;;;;;;5.67;1.30;;;19.20;31.60;;;;;;5180481;28;20198;-44
2023/06/03 12:16:54;;;;;;;1.13;1.13;;;19.30;31.50;;;;;;5183101;28;20549;-45
2023/06/03 12:19:24;;;;;;;1.27;0.80;;;19.40;31.20;;;;;;5194775;28;20499;-44
2023/06/03 12:21:57;;;;;;;2.10;1.20;;;19.50;31.20;;;;;;5181463;28;20439;-44
2023/06/03 12:24:30;;;;;;;1.40;1.30;;;19.50;30.90;;;;;;5177749;28;20199;-43
2023/06/03 12:27:11;;;;;;;1.13;1.00;;;19.30;31.20;;;;;;5198688;28;20447;-45
2023/06/03 12:29:47;;;;;;;1.47;1.10;;;19.30;31.50;;;;;;5202842;28;20791;-43
2023/06/03 12:32:18;;;;;;;1.17;0.97;;;19.30;31.60;;;;;;5201964;28;20529;-45
2023/06/03 12:34:50;;;;;;;1.17;1.07;;;19.30;32.20;;;;;;5203622;28;20497;-44
2023/06/03 12:37:30;;;;;;;3.43;1.13;;;19.30;30.50;;;;;;5202693;28;20430;-46
2023/06/03 12:40:03;;;;;;;1.70;1.10;;;19.10;30.00;;;;;;5197035;28;20996;-44
2023/06/03 12:42:38;;;;;;;1.60;0.63;;;19.00;31.20;;;;;;5189337;28;20453;-45
2023/06/03 12:45:09;;;;;;;1.00;1.00;;;19.00;31.40;;;;;;5195804;28;20466;-45
2023/06/03 12:47:45;;;;;;;5.77;1.57;;;19.00;31.40;;;;;;5206373;28;20442;-43
2023/06/03 12:50:18;;;;;;;1.00;1.00;;;18.80;30.80;;;;;;5206111;28;20491;-45
2023/06/03 12:52:49;;;;;;;0.80;0.77;;;18.80;31.30;;;;;;5187115;28;20566;-45
2023/06/03 12:55:25;;;;;;;1.33;0.70;;;18.80;31.30;;;;;;5206659;28;20473;-45
2023/06/03 12:57:55;;;;;;;2.23;1.50;;;18.90;31.40;;;;;;5204834;28;20522;-45
2023/06/03 13:00:26;;;;;;;1.20;1.10;;;19.00;31.20;;;;;;5205961;28;20506;-45
2023/06/03 13:02:57;;;;;;;1.20;0.93;;;19.10;31.20;;;;;;5208895;28;20266;-44
2023/06/03 13:05:28;;;;;;;1.63;1.43;;;19.20;30.70;;;;;;5201414;28;20190;-44
2023/06/03 13:07:58;;;;;;;1.50;1.20;;;19.30;30.60;;;;;;5209913;28;20230;-44
2023/06/03 13:10:29;;;;;;;1.80;1.07;;;19.40;30.40;;;;;;5196136;28;20191;-45
2023/06/03 13:13:00;;;;;;;3.23;0.80;;;19.40;30.00;;;;;;5200847;28;20223;-45
2023/06/03 13:15:30;;;;;;;1.33;0.70;;;19.40;30.40;;;;;;5200927;28;20346;-45
2023/06/03 13:18:01;;;;;;;4.00;1.50;;;19.40;30.70;;;;;;5196287;28;20191;-45
2023/06/03 13:20:32;;;;;;;1.40;1.30;;;19.40;31.30;;;;;;5206321;28;20512;-46
2023/06/03 13:23:02;;;;;;;3.20;1.10;;;19.30;31.80;;;;;;5172556;28;20195;-44
2023/06/03 13:25:33;;;;;;;2.60;1.20;;;19.10;31.50;;;;;;5187094;28;20185;-45